createdAt,value
2023-05-23T00:01:10.329Z,16.82
2023-05-23T00:03:37.494Z,16.78
2023-05-23T00:06:06.844Z,16.82
2023-05-23T00:08:37.477Z,16.65
2023-05-23T00:11:04.029Z,16.53
2023-05-23T00:13:33.519Z,16.63
2023-05-23T00:16:00.360Z,16.73
2023-05-23T00:18:27.920Z,16.69
2023-05-23T00:20:54.466Z,16.49
2023-05-23T00:23:22.542Z,16.50
2023-05-23T00:25:52.839Z,16.49
2023-05-23T00:28:20.306Z,16.60
2023-05-23T00:30:47.104Z,16.56
2023-05-23T00:33:14.619Z,16.39
2023-05-23T00:35:42.939Z,16.42
2023-05-23T00:38:11.685Z,16.32
2023-05-23T00:40:38.423Z,16.39
2023-05-23T00:43:05.053Z,16.23
2023-05-23T00:45:31.845Z,16.15
2023-05-23T00:48:00.380Z,16.21
2023-05-23T00:50:32.124Z,16.36
2023-05-23T00:53:00.573Z,16.15
2023-05-23T00:55:28.579Z,16.06
2023-05-23T00:57:57.243Z,16.15
2023-05-23T01:00:25.474Z,16.30
2023-05-23T01:02:53.729Z,16.15
2023-05-23T01:05:22.659Z,15.82
2023-05-23T01:07:50.495Z,15.97
2023-05-23T01:10:20.584Z,15.84
2023-05-23T01:13:21.111Z,15.80
2023-05-23T01:15:53.841Z,15.91
2023-05-23T01:18:46.619Z,15.85
2023-05-23T01:21:17.387Z,15.84
2023-05-23T01:24:11.736Z,15.83
2023-05-23T01:27:05.509Z,15.87
2023-05-23T01:29:56.687Z,15.71
2023-05-23T01:32:25.480Z,15.81
2023-05-23T01:34:54.521Z,15.58
2023-05-23T01:37:21.222Z,15.60
2023-05-23T01:39:48.203Z,15.72
2023-05-23T01:42:15.061Z,15.70
2023-05-23T01:44:42.047Z,15.75
2023-05-23T01:47:09.776Z,15.77
2023-05-23T01:49:37.833Z,15.60
2023-05-23T01:52:05.794Z,15.60
2023-05-23T01:54:35.417Z,15.47
2023-05-23T01:57:03.003Z,15.52
2023-05-23T01:59:29.620Z,15.49
2023-05-23T02:01:56.271Z,15.38
2023-05-23T02:04:22.896Z,15.38
2023-05-23T02:06:49.436Z,15.43
2023-05-23T02:09:16.670Z,15.49
2023-05-23T02:11:50.415Z,15.46
2023-05-23T02:14:18.659Z,15.45
2023-05-23T02:16:45.832Z,15.47
2023-05-23T02:19:12.601Z,15.53
2023-05-23T02:21:39.198Z,15.56
2023-05-23T02:24:05.939Z,15.40
2023-05-23T02:26:33.477Z,15.66
2023-05-23T02:29:00.020Z,15.73
2023-05-23T02:31:29.081Z,15.59
2023-05-23T02:33:55.761Z,15.43
2023-05-23T02:36:22.731Z,15.46
2023-05-23T02:38:50.686Z,15.59
2023-05-23T02:41:18.251Z,15.64
2023-05-23T02:43:47.713Z,15.57
2023-05-23T02:46:14.315Z,15.47
2023-05-23T02:48:40.985Z,15.46
2023-05-23T02:51:07.632Z,15.61
2023-05-23T02:53:34.202Z,15.52
2023-05-23T02:56:00.742Z,15.41
2023-05-23T02:58:30.420Z,15.37
2023-05-23T03:00:57.168Z,15.40
2023-05-23T03:03:23.880Z,15.23
2023-05-23T03:05:51.674Z,15.35
2023-05-23T03:08:18.285Z,15.45
2023-05-23T03:10:44.937Z,15.32
2023-05-23T03:13:11.685Z,15.45
2023-05-23T03:15:38.484Z,15.49
2023-05-23T03:18:05.301Z,15.37
2023-05-23T03:20:32.008Z,15.23
2023-05-23T03:22:59.855Z,15.35
2023-05-23T03:25:29.995Z,15.43
2023-05-23T03:27:58.361Z,15.44
2023-05-23T03:30:25.119Z,15.55
2023-05-23T03:32:51.844Z,15.40
2023-05-23T03:35:18.572Z,15.45
2023-05-23T03:37:52.174Z,15.38
2023-05-23T03:40:18.824Z,15.23
2023-05-23T03:42:48.927Z,15.38
2023-05-23T03:45:16.054Z,15.45
2023-05-23T03:47:43.351Z,15.32
2023-05-23T03:54:11.011Z,15.41
2023-05-23T03:56:37.630Z,15.43
2023-05-23T03:59:04.315Z,15.49
2023-05-23T04:01:31.019Z,15.46
2023-05-23T04:03:58.234Z,15.55
2023-05-23T04:06:25.027Z,15.66
2023-05-23T04:08:51.823Z,15.54
2023-05-23T04:11:18.460Z,15.58
2023-05-23T04:13:50.238Z,15.65
2023-05-23T04:16:17.341Z,15.58
2023-05-23T04:18:47.527Z,15.70
2023-05-23T04:21:20.252Z,15.73
2023-05-23T04:23:47.244Z,15.89
2023-05-23T04:26:13.782Z,16.03
2023-05-23T04:28:40.708Z,16.14
2023-05-23T04:31:08.188Z,16.29
2023-05-23T04:33:34.839Z,16.46
2023-05-23T04:36:02.688Z,16.57
2023-05-23T04:38:29.307Z,16.90
2023-05-23T04:40:55.918Z,17.53
2023-05-23T04:43:26.733Z,18.07
2023-05-23T04:45:57.825Z,18.28
2023-05-23T04:48:24.916Z,18.22
2023-05-23T04:50:52.721Z,18.00
2023-05-23T04:53:19.339Z,18.49
2023-05-23T04:55:46.419Z,18.89
2023-05-23T04:58:13.416Z,18.83
2023-05-23T05:00:40.372Z,19.13
2023-05-23T05:03:10.000Z,19.32
2023-05-23T05:05:36.707Z,19.44
2023-05-23T05:08:03.233Z,19.21
2023-05-23T05:10:29.870Z,19.30
2023-05-23T05:12:56.515Z,19.35
2023-05-23T05:15:23.728Z,19.57
2023-05-23T05:17:50.324Z,19.13
2023-05-23T05:20:17.460Z,18.78
2023-05-23T05:22:46.192Z,18.95
2023-05-23T05:25:12.857Z,19.39
2023-05-23T05:27:39.991Z,19.27
2023-05-23T05:30:08.088Z,19.05
2023-05-23T05:32:35.085Z,19.01
2023-05-23T05:35:02.474Z,18.72
2023-05-23T05:37:29.843Z,18.61
2023-05-23T05:39:56.590Z,18.76
2023-05-23T05:42:23.404Z,18.87
2023-05-23T05:44:50.336Z,19.49
2023-05-23T05:47:17.025Z,20.07
2023-05-23T05:49:43.552Z,20.19
2023-05-23T05:52:10.589Z,20.90
2023-05-23T05:54:37.718Z,21.64
2023-05-23T05:57:04.602Z,21.87
2023-05-23T05:59:32.670Z,21.61
2023-05-23T06:01:59.687Z,21.00
2023-05-23T06:04:26.316Z,21.59
2023-05-23T06:06:52.978Z,21.87
2023-05-23T06:09:19.521Z,21.92
2023-05-23T06:11:56.109Z,21.87
2023-05-23T06:14:22.654Z,21.57
2023-05-23T06:16:49.718Z,21.65
2023-05-23T06:19:16.340Z,21.56
2023-05-23T06:21:43.048Z,21.07
2023-05-23T06:24:10.700Z,20.81
2023-05-23T06:26:37.826Z,20.92
2023-05-23T06:29:04.597Z,20.78
2023-05-23T06:31:31.521Z,20.49
2023-05-23T06:33:58.104Z,20.57
2023-05-23T06:36:24.945Z,20.38
2023-05-23T06:38:51.586Z,20.54
2023-05-23T06:41:24.117Z,20.41
2023-05-23T06:43:50.853Z,20.42
2023-05-23T06:46:17.533Z,20.26
2023-05-23T06:48:44.152Z,20.40
2023-05-23T06:51:11.572Z,20.53
2023-05-23T06:53:38.208Z,20.51
2023-05-23T06:56:05.149Z,20.70
2023-05-23T06:58:31.676Z,20.81
2023-05-23T07:00:58.411Z,21.29
2023-05-23T07:03:24.946Z,21.82
2023-05-23T07:05:51.852Z,21.76
2023-05-23T07:08:18.703Z,21.76
2023-05-23T07:10:45.479Z,23.21
2023-05-23T07:13:13.287Z,23.41
2023-05-23T07:15:40.180Z,23.14
2023-05-23T07:18:06.892Z,23.25
2023-05-23T07:20:34.408Z,23.05
2023-05-23T07:23:01.085Z,23.93
2023-05-23T07:25:28.068Z,24.32
2023-05-23T07:27:54.925Z,24.45
2023-05-23T07:30:22.803Z,23.72
2023-05-23T07:32:49.630Z,22.83
2023-05-23T07:35:19.023Z,22.55
2023-05-23T07:37:46.750Z,22.75
2023-05-23T07:40:14.592Z,23.01
2023-05-23T07:42:41.309Z,22.72
2023-05-23T07:45:08.262Z,22.33
2023-05-23T07:47:35.888Z,22.12
2023-05-23T07:50:02.529Z,21.86
2023-05-23T07:52:30.708Z,21.63
2023-05-23T07:54:57.399Z,21.76
2023-05-23T07:57:24.589Z,21.55
2023-05-23T07:59:51.766Z,22.24
2023-05-23T08:02:18.688Z,22.24
2023-05-23T08:04:46.003Z,22.10
2023-05-23T08:07:12.975Z,22.02
2023-05-23T08:09:40.801Z,22.57
2023-05-23T08:12:09.494Z,22.61
2023-05-23T08:14:49.951Z,22.58
2023-05-23T08:17:18.599Z,22.64
2023-05-23T08:19:45.231Z,22.49
2023-05-23T08:22:11.861Z,23.21
2023-05-23T08:24:38.984Z,23.15
2023-05-23T08:27:08.146Z,23.24
2023-05-23T08:29:35.455Z,22.96
2023-05-23T08:32:02.232Z,22.73
2023-05-23T08:34:29.038Z,22.63
2023-05-23T08:36:55.585Z,23.19
2023-05-23T08:39:22.113Z,22.87
2023-05-23T08:41:49.877Z,22.44
2023-05-23T08:44:25.727Z,21.88
2023-05-23T08:46:53.699Z,22.13
2023-05-23T08:49:22.791Z,22.05
2023-05-23T08:51:52.414Z,21.68
2023-05-23T08:54:19.139Z,22.92
2023-05-23T08:56:48.892Z,22.50
2023-05-23T08:59:16.621Z,22.80
2023-05-23T09:01:46.236Z,22.50
2023-05-23T09:04:12.870Z,22.51
2023-05-23T09:06:39.529Z,22.42
2023-05-23T09:09:06.361Z,22.40
2023-05-23T09:11:36.367Z,22.37
2023-05-23T09:14:08.279Z,22.05
2023-05-23T09:16:35.229Z,22.14
2023-05-23T09:19:11.292Z,22.01
2023-05-23T09:21:37.868Z,21.98
2023-05-23T09:24:05.809Z,21.84
2023-05-23T09:26:32.403Z,21.68
2023-05-23T09:28:59.644Z,22.14
2023-05-23T09:31:29.004Z,22.39
2023-05-23T09:33:55.672Z,22.21
2023-05-23T09:36:30.666Z,22.54
2023-05-23T09:38:57.468Z,23.02
2023-05-23T09:41:31.504Z,23.57
2023-05-23T09:43:58.162Z,23.80
2023-05-23T09:46:30.444Z,23.86
2023-05-23T09:48:57.119Z,24.01
2023-05-23T09:51:24.303Z,24.16
2023-05-23T09:53:53.358Z,24.99
2023-05-23T09:56:20.265Z,24.49
2023-05-23T09:58:48.846Z,23.94
2023-05-23T10:01:16.351Z,23.59
2023-05-23T10:03:50.162Z,23.00
2023-05-23T10:06:28.935Z,23.00
2023-05-23T10:09:08.278Z,23.94
2023-05-23T10:11:34.799Z,24.34
2023-05-23T10:14:05.322Z,25.06
2023-05-23T10:16:44.217Z,24.51
2023-05-23T10:19:19.388Z,24.15
2023-05-23T10:22:01.618Z,23.78
2023-05-23T10:24:29.139Z,24.45
2023-05-23T10:26:56.399Z,24.15
2023-05-23T10:29:24.901Z,23.80
2023-05-23T10:31:56.327Z,23.58
2023-05-23T10:34:42.149Z,23.50
2023-05-23T10:37:16.555Z,24.62
2023-05-23T10:40:06.216Z,24.86
2023-05-23T10:42:43.284Z,25.13
2023-05-23T10:45:27.949Z,25.65
2023-05-23T10:47:54.839Z,25.51
2023-05-23T10:50:37.162Z,25.09
2023-05-23T10:53:05.699Z,24.77
2023-05-23T10:55:36.884Z,24.27
2023-05-23T10:58:13.052Z,23.96
2023-05-23T11:00:40.012Z,24.09
2023-05-23T11:03:09.119Z,24.52
2023-05-23T11:05:38.670Z,24.44
2023-05-23T11:08:10.153Z,24.49
2023-05-23T11:11:05.172Z,25.03
2023-05-23T11:13:55.468Z,24.82
2023-05-23T11:16:47.152Z,25.39
2023-05-23T11:19:20.032Z,25.53
2023-05-23T11:21:50.050Z,25.76
2023-05-23T11:24:17.678Z,26.06
2023-05-23T11:27:04.289Z,25.33
2023-05-23T11:29:31.000Z,25.03
2023-05-23T11:31:58.235Z,24.99
2023-05-23T11:34:28.084Z,24.92
2023-05-23T11:36:55.836Z,24.85
2023-05-23T11:39:23.616Z,24.87
2023-05-23T11:42:03.428Z,24.62
2023-05-23T11:44:30.646Z,24.71
2023-05-23T11:47:07.805Z,24.73
2023-05-23T11:49:38.632Z,24.06
2023-05-23T11:52:06.704Z,23.96
2023-05-23T11:54:33.630Z,24.21
2023-05-23T11:57:00.571Z,23.63
2023-05-23T11:59:28.513Z,24.46
2023-05-23T12:01:55.975Z,24.42
2023-05-23T12:04:22.842Z,24.74
2023-05-23T12:06:49.927Z,25.01
2023-05-23T12:09:17.065Z,24.82
2023-05-23T12:11:45.243Z,24.87
2023-05-23T12:14:16.609Z,24.51
2023-05-23T12:16:52.746Z,24.03
2023-05-23T12:19:19.659Z,23.85
2023-05-23T12:21:47.986Z,23.30
2023-05-23T12:24:16.107Z,23.71
2023-05-23T12:26:54.923Z,23.62
2023-05-23T12:29:28.138Z,23.46
2023-05-23T12:31:54.797Z,23.34
2023-05-23T12:34:21.900Z,23.65
2023-05-23T12:36:55.134Z,23.20
2023-05-23T12:39:30.784Z,23.24
2023-05-23T12:42:08.656Z,22.80
2023-05-23T12:44:35.902Z,22.72
2023-05-23T12:47:05.781Z,23.19
2023-05-23T12:49:32.503Z,23.29
2023-05-23T12:51:59.103Z,23.81
2023-05-23T12:54:26.056Z,24.03
2023-05-23T12:56:52.619Z,23.66
2023-05-23T12:59:19.830Z,23.47
2023-05-23T13:01:47.219Z,23.68
2023-05-23T13:04:13.768Z,23.76
2023-05-23T13:06:46.793Z,24.09
2023-05-23T13:09:13.384Z,23.50
2023-05-23T13:11:41.508Z,23.33
2023-05-23T13:14:08.067Z,23.18
2023-05-23T13:16:40.901Z,23.12
2023-05-23T13:19:07.876Z,22.78
2023-05-23T13:21:34.456Z,22.45
2023-05-23T13:24:00.998Z,22.91
2023-05-23T13:26:27.611Z,23.20
2023-05-23T13:28:55.203Z,23.20
2023-05-23T13:31:22.068Z,23.32
2023-05-23T13:33:48.611Z,22.97
2023-05-23T13:36:15.178Z,23.02
2023-05-23T13:38:41.728Z,23.05
2023-05-23T13:41:09.356Z,23.10
2023-05-23T13:43:36.497Z,23.10
2023-05-23T13:46:03.233Z,23.23
2023-05-23T13:48:29.812Z,23.18
2023-05-23T13:50:56.618Z,22.79
2023-05-23T13:53:24.488Z,22.98
2023-05-23T13:55:50.998Z,23.10
2023-05-23T13:58:17.630Z,23.01
2023-05-23T14:00:44.440Z,22.88
2023-05-23T14:03:12.192Z,23.33
2023-05-23T14:05:38.986Z,23.24
2023-05-23T14:08:05.720Z,22.80
2023-05-23T14:10:33.526Z,22.78
2023-05-23T14:13:00.791Z,22.41
2023-05-23T14:15:28.227Z,22.25
2023-05-23T14:18:00.861Z,22.34
2023-05-23T14:20:27.702Z,22.05
2023-05-23T14:22:54.299Z,22.52
2023-05-23T14:25:20.915Z,22.92
2023-05-23T14:27:47.534Z,22.93
2023-05-23T14:30:14.183Z,23.28
2023-05-23T14:32:50.219Z,23.60
2023-05-23T14:35:16.898Z,23.70
2023-05-23T14:37:46.993Z,23.48
2023-05-23T14:40:14.334Z,23.50
2023-05-23T14:42:44.083Z,23.15
2023-05-23T14:45:11.326Z,23.02
2023-05-23T14:47:39.391Z,23.21
2023-05-23T14:50:06.828Z,23.34
2023-05-23T14:52:33.469Z,23.35
2023-05-23T14:55:01.385Z,23.29
2023-05-23T14:57:28.033Z,23.41
2023-05-23T14:59:54.555Z,23.17
2023-05-23T15:02:23.154Z,23.33
2023-05-23T15:04:49.768Z,23.57
2023-05-23T15:07:18.253Z,23.59
2023-05-23T15:09:45.897Z,23.16
2023-05-23T15:12:12.846Z,23.01
2023-05-23T15:14:39.346Z,22.73
2023-05-23T15:17:07.962Z,22.42
2023-05-23T15:19:37.316Z,22.69
2023-05-23T15:22:04.813Z,22.53
2023-05-23T15:24:31.852Z,22.30
2023-05-23T15:27:11.739Z,22.17
2023-05-23T15:29:46.316Z,22.28
2023-05-23T15:32:13.168Z,22.20
2023-05-23T15:34:39.935Z,22.29
2023-05-23T15:37:06.431Z,22.55
2023-05-23T15:39:33.109Z,22.18
2023-05-23T15:42:02.044Z,22.03
2023-05-23T15:44:28.742Z,21.76
2023-05-23T15:46:55.927Z,21.96
2023-05-23T15:49:26.489Z,22.05
2023-05-23T15:51:54.338Z,21.83
2023-05-23T15:54:21.092Z,21.66
2023-05-23T15:56:47.650Z,21.05
2023-05-23T15:59:14.181Z,21.40
2023-05-23T16:02:00.063Z,21.48
2023-05-23T16:04:26.720Z,21.63
2023-05-23T16:06:54.275Z,21.55
2023-05-23T16:09:20.861Z,21.61
2023-05-23T16:11:54.454Z,21.77
2023-05-23T16:14:20.992Z,21.73
2023-05-23T16:16:54.086Z,21.65
2023-05-23T16:19:20.669Z,21.37
2023-05-23T16:21:47.367Z,21.06
2023-05-23T16:24:14.231Z,21.07
2023-05-23T16:26:42.832Z,21.15
2023-05-23T16:29:11.420Z,21.16
2023-05-23T16:31:38.672Z,21.07
2023-05-23T16:34:12.488Z,20.78
2023-05-23T16:36:39.138Z,20.72
2023-05-23T16:39:06.778Z,20.75
2023-05-23T16:41:34.443Z,20.46
2023-05-23T16:44:24.237Z,20.17
2023-05-23T16:47:04.373Z,20.35
2023-05-23T16:49:31.137Z,20.41
2023-05-23T16:51:57.751Z,20.25
2023-05-23T16:54:24.509Z,20.29
2023-05-23T16:56:51.109Z,20.31
2023-05-23T16:59:18.068Z,20.37
2023-05-23T17:01:44.678Z,20.38
2023-05-23T17:04:11.391Z,20.29
2023-05-23T17:06:38.077Z,20.28
2023-05-23T17:09:05.344Z,20.22
2023-05-23T17:11:32.357Z,19.98
2023-05-23T17:13:58.839Z,19.95
2023-05-23T17:16:33.787Z,19.91
2023-05-23T17:19:04.365Z,19.69
2023-05-23T17:21:31.470Z,19.61
2023-05-23T17:23:57.980Z,19.53
2023-05-23T17:26:24.593Z,19.60
2023-05-23T17:28:52.328Z,19.54
2023-05-23T17:31:19.198Z,19.65
2023-05-23T17:33:46.509Z,19.50
2023-05-23T17:36:14.185Z,19.46
2023-05-23T17:38:41.311Z,19.35
2023-05-23T17:41:07.867Z,19.44
2023-05-23T17:43:34.393Z,19.45
2023-05-23T17:46:00.977Z,19.32
2023-05-23T17:51:12.043Z,19.13
2023-05-23T17:53:41.291Z,18.72
2023-05-23T17:56:11.589Z,18.54
2023-05-23T17:58:39.737Z,18.76
2023-05-23T18:01:07.925Z,18.82
2023-05-23T18:03:34.519Z,18.50
2023-05-23T18:06:02.065Z,18.23
2023-05-23T18:08:35.764Z,18.25
2023-05-23T18:11:02.573Z,18.28
2023-05-23T18:13:30.868Z,18.42
2023-05-23T18:15:58.534Z,18.33
2023-05-23T18:18:25.122Z,18.32
2023-05-23T18:20:52.748Z,18.14
2023-05-23T18:23:19.549Z,18.33
2023-05-23T18:25:46.339Z,18.22
2023-05-23T18:28:18.188Z,18.22
2023-05-23T18:30:45.004Z,18.00
2023-05-23T18:33:11.887Z,17.76
2023-05-23T18:35:38.440Z,17.87
2023-05-23T18:38:05.158Z,17.81
2023-05-23T18:40:36.241Z,17.55
2023-05-23T18:43:02.940Z,17.62
2023-05-23T18:45:29.501Z,17.68
2023-05-23T18:47:56.389Z,17.68
2023-05-23T18:50:23.876Z,17.47
2023-05-23T18:52:50.759Z,17.30
2023-05-23T18:55:17.424Z,17.21
2023-05-23T18:57:44.991Z,17.06
2023-05-23T19:00:12.075Z,17.25
2023-05-23T19:02:44.441Z,17.02
2023-05-23T19:05:12.742Z,17.12
2023-05-23T19:07:39.669Z,16.99
2023-05-23T19:10:06.837Z,16.89
2023-05-23T19:12:33.611Z,16.96
2023-05-23T19:15:00.662Z,16.91
2023-05-23T19:17:27.196Z,16.59
2023-05-23T19:19:55.913Z,16.69
2023-05-23T19:22:23.014Z,16.69
2023-05-23T19:24:49.582Z,16.86
2023-05-23T19:27:16.719Z,16.63
2023-05-23T19:29:43.281Z,16.55
2023-05-23T19:32:09.954Z,16.57
2023-05-23T19:34:36.800Z,16.62
2023-05-23T19:37:08.644Z,16.35
2023-05-23T19:39:45.983Z,16.36
2023-05-23T19:42:14.640Z,16.42
2023-05-23T19:44:41.640Z,16.51
2023-05-23T19:47:12.538Z,16.42
2023-05-23T19:49:39.038Z,16.13
2023-05-23T19:52:14.352Z,16.20
2023-05-23T19:54:41.072Z,16.22
2023-05-23T19:57:07.793Z,16.19
2023-05-23T19:59:34.496Z,16.30
2023-05-23T20:02:01.327Z,16.43
2023-05-23T20:04:28.474Z,16.22
2023-05-23T20:06:56.120Z,16.30
2023-05-23T20:09:23.192Z,16.31
2023-05-23T20:11:49.803Z,16.35
2023-05-23T20:14:16.479Z,16.50
2023-05-23T20:16:43.125Z,16.36
2023-05-23T20:19:10.367Z,16.20
2023-05-23T20:21:39.010Z,16.20
2023-05-23T20:24:05.682Z,16.33
2023-05-23T20:26:32.234Z,16.36
2023-05-23T20:28:59.909Z,16.33
2023-05-23T20:31:26.487Z,16.36
2023-05-23T20:33:53.226Z,16.31
2023-05-23T20:36:21.041Z,16.30
2023-05-23T20:38:47.965Z,16.21
2023-05-23T20:41:14.733Z,16.22
2023-05-23T20:43:41.420Z,16.01
2023-05-23T20:46:11.725Z,16.01
2023-05-23T20:48:39.093Z,16.16
2023-05-23T20:51:07.486Z,16.10
2023-05-23T20:53:34.959Z,15.90
2023-05-23T20:56:02.637Z,16.10
2023-05-23T20:58:31.698Z,16.22
2023-05-23T21:00:58.844Z,16.23
2023-05-23T21:03:25.692Z,16.14
2023-05-23T21:05:52.411Z,15.97
2023-05-23T21:08:19.091Z,16.16
2023-05-23T21:10:49.855Z,16.08
2023-05-23T21:13:18.187Z,16.00
2023-05-23T21:15:44.872Z,16.08
2023-05-23T21:18:12.551Z,15.97
2023-05-23T21:20:39.099Z,16.11
2023-05-23T21:23:05.687Z,16.04
2023-05-23T21:25:32.240Z,15.98
2023-05-23T21:27:58.766Z,15.86
2023-05-23T21:30:39.119Z,15.83
2023-05-23T21:33:06.439Z,15.85
2023-05-23T21:35:33.012Z,15.70
2023-05-23T21:37:59.580Z,15.65
2023-05-23T21:40:27.061Z,15.65
2023-05-23T21:42:53.677Z,15.40
2023-05-23T21:45:20.385Z,15.37
2023-05-23T21:47:48.086Z,15.32
2023-05-23T21:50:14.729Z,15.42
2023-05-23T21:52:41.265Z,15.22
2023-05-23T21:55:07.967Z,15.22
2023-05-23T21:57:34.558Z,15.12
2023-05-23T22:00:01.128Z,15.09
2023-05-23T22:02:27.814Z,14.79
2023-05-23T22:04:54.488Z,14.99
2023-05-23T22:07:25.229Z,14.84
2023-05-23T22:09:53.462Z,14.86
2023-05-23T22:12:20.493Z,14.66
2023-05-23T22:14:47.335Z,14.63
2023-05-23T22:17:14.331Z,14.47
2023-05-23T22:19:41.772Z,14.24
2023-05-23T22:22:09.807Z,14.12
2023-05-23T22:24:36.656Z,14.04
2023-05-23T22:27:04.266Z,13.94
2023-05-23T22:29:31.043Z,13.83
2023-05-23T22:31:57.719Z,13.59
2023-05-23T22:34:24.546Z,13.53
2023-05-23T22:36:52.140Z,13.67
2023-05-23T22:39:24.770Z,13.60
2023-05-23T22:41:51.361Z,13.54
2023-05-23T22:44:17.971Z,13.46
2023-05-23T22:46:44.615Z,13.54
2023-05-23T22:49:22.354Z,13.61
2023-05-23T22:51:48.963Z,13.55
2023-05-23T22:54:15.762Z,13.63
2023-05-23T22:56:48.430Z,13.71
2023-05-23T22:59:14.994Z,13.49
2023-05-23T23:01:41.675Z,13.59
2023-05-23T23:04:08.241Z,13.58
2023-05-23T23:06:35.632Z,13.44
2023-05-23T23:09:02.231Z,13.28
2023-05-23T23:11:28.823Z,13.37
2023-05-23T23:13:55.412Z,13.37
2023-05-23T23:16:22.101Z,13.53
2023-05-23T23:18:49.099Z,13.63
2023-05-23T23:21:15.826Z,13.53
2023-05-23T23:23:42.521Z,13.35
2023-05-23T23:26:09.142Z,13.34
2023-05-23T23:28:35.782Z,13.07
2023-05-23T23:31:02.475Z,13.12
2023-05-23T23:33:29.123Z,13.09
2023-05-23T23:35:55.873Z,13.16
2023-05-23T23:38:22.415Z,13.15
2023-05-23T23:40:49.153Z,13.10
2023-05-23T23:43:15.771Z,13.03
2023-05-23T23:45:42.395Z,13.07
2023-05-23T23:48:09.130Z,13.16
2023-05-23T23:50:35.798Z,13.01
2023-05-23T23:53:02.407Z,13.00
2023-05-23T23:55:29.061Z,13.06
2023-05-23T23:57:55.715Z,12.98
